createdAt,value
2019-02-08T00:01:39.878Z,6.10
2019-02-08T00:04:08.802Z,7.17
2019-02-08T00:06:37.868Z,6.73
2019-02-08T00:09:09.773Z,7.97
2019-02-08T00:11:38.696Z,7.63
2019-02-08T00:14:08.088Z,4.33
2019-02-08T00:16:37.015Z,4.53
2019-02-08T00:19:06.385Z,5.97
2019-02-08T00:21:44.529Z,5.03
2019-02-08T00:24:13.551Z,3.70
2019-02-08T00:26:42.574Z,5.97
2019-02-08T00:29:11.549Z,4.30
2019-02-08T00:31:40.800Z,6.87
2019-02-08T00:34:09.625Z,6.00
2019-02-08T00:36:38.642Z,6.93
2019-02-08T00:39:11.009Z,6.37
2019-02-08T00:41:40.029Z,8.50
2019-02-08T00:44:09.214Z,5.47
2019-02-08T00:46:38.166Z,8.20
2019-02-08T00:49:07.114Z,6.40
2019-02-08T00:51:35.964Z,7.60
2019-02-08T00:54:05.160Z,6.30
2019-02-08T00:56:33.933Z,6.57
2019-02-08T00:59:02.799Z,10.43
2019-02-08T01:01:31.570Z,8.13
2019-02-08T01:04:00.657Z,6.43
2019-02-08T01:06:29.544Z,8.87
2019-02-08T01:08:58.767Z,7.57
2019-02-08T01:11:27.870Z,8.43
2019-02-08T01:13:56.660Z,6.50
2019-02-08T01:16:26.168Z,7.50
2019-02-08T01:18:55.204Z,6.67
2019-02-08T01:21:24.358Z,10.03
2019-02-08T01:23:53.212Z,11.03
2019-02-08T01:26:22.028Z,8.47
2019-02-08T01:28:50.784Z,7.13
2019-02-08T01:31:19.753Z,13.23
2019-02-08T01:33:48.583Z,13.00
2019-02-08T01:36:17.586Z,10.87
2019-02-08T01:39:14.646Z,7.10
2019-02-08T01:41:43.965Z,10.73
2019-02-08T01:44:13.190Z,10.93
2019-02-08T01:46:42.052Z,11.63
2019-02-08T01:49:11.166Z,12.10
2019-02-08T01:51:40.025Z,8.83
2019-02-08T01:54:08.814Z,11.63
2019-02-08T01:56:37.795Z,8.37
2019-02-08T01:59:06.982Z,10.90
2019-02-08T02:01:35.955Z,10.83
2019-02-08T02:04:05.185Z,11.67
2019-02-08T02:06:34.542Z,10.67
2019-02-08T02:09:04.993Z,12.10
2019-02-08T02:11:34.519Z,10.23
2019-02-08T02:14:03.471Z,13.13
2019-02-08T02:16:32.597Z,10.20
2019-02-08T02:19:01.483Z,12.70
2019-02-08T02:21:30.506Z,11.77
2019-02-08T02:23:59.381Z,12.03
2019-02-08T02:26:29.374Z,9.47
2019-02-08T02:28:58.190Z,11.93
2019-02-08T02:31:27.105Z,11.93
2019-02-08T02:33:55.921Z,10.57
2019-02-08T02:36:24.699Z,11.50
2019-02-08T02:38:53.719Z,10.47
2019-02-08T02:41:22.640Z,10.80
2019-02-08T02:43:51.449Z,18.80
2019-02-08T02:46:20.321Z,11.80
2019-02-08T02:48:49.160Z,15.57
2019-02-08T02:51:20.705Z,13.37
2019-02-08T02:53:49.771Z,13.23
2019-02-08T02:56:18.566Z,11.53
2019-02-08T02:58:47.491Z,20.23
2019-02-08T03:01:16.712Z,19.63
2019-02-08T03:03:45.616Z,15.57
2019-02-08T03:06:14.473Z,12.43
2019-02-08T03:08:43.583Z,10.73
2019-02-08T03:11:12.368Z,15.67
2019-02-08T03:13:41.311Z,14.03
2019-02-08T03:16:10.238Z,14.73
2019-02-08T03:18:39.527Z,14.40
2019-02-08T03:21:08.313Z,18.77
2019-02-08T03:23:37.120Z,14.93
2019-02-08T03:26:05.986Z,13.03
2019-02-08T03:28:34.794Z,12.20
2019-02-08T03:31:03.866Z,21.47
2019-02-08T03:33:32.838Z,16.37
2019-02-08T03:36:01.700Z,14.03
2019-02-08T03:38:33.652Z,13.80
2019-02-08T03:41:02.583Z,21.13
2019-02-08T03:43:31.411Z,17.70
2019-02-08T03:46:00.552Z,17.50
2019-02-08T03:48:29.677Z,20.90
2019-02-08T03:50:58.701Z,18.17
2019-02-08T03:53:28.029Z,17.37
2019-02-08T03:55:58.807Z,18.20
2019-02-08T03:58:27.437Z,17.40
2019-02-08T04:01:02.160Z,21.30
2019-02-08T04:03:31.483Z,21.23
2019-02-08T04:06:00.400Z,17.50
2019-02-08T04:08:29.270Z,14.10
2019-02-08T04:10:58.582Z,20.17
2019-02-08T04:13:27.441Z,15.47
2019-02-08T04:15:56.268Z,17.33
2019-02-08T04:18:25.568Z,19.07
2019-02-08T04:20:54.576Z,23.37
2019-02-08T04:23:23.430Z,17.03
2019-02-08T04:25:52.824Z,22.83
2019-02-08T04:28:22.043Z,19.80
2019-02-08T04:30:50.923Z,19.27
2019-02-08T04:33:19.862Z,20.13
2019-02-08T04:35:49.039Z,17.80
2019-02-08T04:38:18.583Z,16.63
2019-02-08T04:40:47.650Z,17.17
2019-02-08T04:43:16.782Z,16.80
2019-02-08T04:45:45.685Z,17.73
2019-02-08T04:48:14.613Z,14.47
2019-02-08T04:50:44.373Z,16.47
2019-02-08T04:53:30.277Z,23.10
2019-02-08T04:55:59.159Z,17.30
2019-02-08T04:58:35.474Z,16.70
2019-02-08T05:00:58.557Z,18.47
2019-02-08T05:03:27.483Z,19.67
2019-02-08T05:05:56.462Z,18.53
2019-02-08T05:08:25.803Z,17.80
2019-02-08T05:10:54.854Z,18.83
2019-02-08T05:13:23.798Z,21.23
2019-02-08T05:15:53.017Z,16.37
2019-02-08T05:18:21.876Z,19.83
2019-02-08T05:20:51.290Z,18.03
2019-02-08T05:23:20.093Z,15.70
2019-02-08T05:25:49.023Z,15.10
2019-02-08T05:28:23.986Z,22.00
2019-02-08T05:30:53.029Z,18.60
2019-02-08T05:33:21.827Z,18.33
2019-02-08T05:35:50.862Z,15.70
2019-02-08T05:38:19.653Z,19.07
2019-02-08T05:40:48.464Z,18.73
2019-02-08T05:43:17.243Z,19.83
2019-02-08T05:45:49.776Z,14.43
2019-02-08T05:48:18.899Z,14.67
2019-02-08T05:50:47.668Z,19.53
2019-02-08T05:53:16.837Z,14.87
2019-02-08T05:55:45.944Z,16.47
2019-02-08T05:58:14.808Z,16.17
2019-02-08T06:00:56.861Z,14.37
2019-02-08T06:03:25.901Z,14.70
2019-02-08T06:05:55.516Z,19.53
2019-02-08T06:08:24.374Z,13.17
2019-02-08T06:10:53.426Z,14.07
2019-02-08T06:13:22.352Z,15.27
2019-02-08T06:15:51.207Z,17.10
2019-02-08T06:18:22.450Z,12.88
2019-02-08T06:20:51.347Z,13.97
2019-02-08T06:23:20.194Z,16.77
2019-02-08T06:25:49.115Z,15.77
2019-02-08T06:28:18.014Z,13.03
2019-02-08T06:30:47.057Z,15.03
2019-02-08T06:33:16.064Z,14.47
2019-02-08T06:35:50.897Z,16.20
2019-02-08T06:38:20.060Z,12.37
2019-02-08T06:40:49.235Z,13.80
2019-02-08T06:43:18.316Z,15.40
2019-02-08T06:45:47.286Z,14.17
2019-02-08T06:48:16.227Z,10.27
2019-02-08T06:50:45.476Z,16.43
2019-02-08T06:53:14.667Z,13.97
2019-02-08T06:55:43.621Z,11.23
2019-02-08T06:58:26.830Z,7.97
2019-02-08T07:01:02.351Z,13.40
2019-02-08T07:03:48.921Z,11.97
2019-02-08T07:10:14.457Z,15.07
2019-02-08T07:13:01.592Z,11.07
2019-02-08T07:15:37.661Z,10.27
2019-02-08T07:18:25.569Z,12.93
2019-02-08T07:21:13.713Z,11.83
2019-02-08T07:23:59.828Z,15.03
2019-02-08T07:26:39.868Z,10.73
2019-02-08T07:29:24.155Z,11.80
2019-02-08T07:32:27.092Z,11.50
2019-02-08T07:35:15.263Z,9.70
2019-02-08T07:38:08.273Z,11.63
2019-02-08T07:40:49.733Z,13.87
2019-02-08T07:43:29.688Z,10.03
2019-02-08T07:46:31.484Z,9.23
2019-02-08T07:49:28.854Z,10.00
2019-02-08T07:52:19.816Z,9.23
2019-02-08T07:55:06.240Z,9.07
2019-02-08T07:57:42.087Z,11.57
2019-02-08T08:00:45.386Z,10.97
2019-02-08T08:03:31.795Z,7.87
2019-02-08T08:06:16.842Z,17.93
2019-02-08T08:08:59.979Z,8.10
2019-02-08T08:11:53.004Z,8.77
2019-02-08T08:14:39.880Z,10.00
2019-02-08T08:17:26.642Z,12.03
2019-02-08T08:20:14.207Z,11.27
2019-02-08T08:23:04.931Z,9.90
2019-02-08T08:26:03.234Z,11.03
2019-02-08T08:28:42.805Z,10.10
2019-02-08T08:31:38.707Z,13.67
2019-02-08T08:34:13.332Z,8.33
2019-02-08T08:37:03.924Z,12.17
2019-02-08T08:40:07.618Z,14.77
2019-02-08T08:43:18.165Z,16.73
2019-02-08T08:46:40.344Z,11.33
2019-02-08T08:49:50.349Z,9.87
2019-02-08T08:52:49.304Z,13.70
2019-02-08T08:55:57.903Z,14.43
2019-02-08T08:59:07.313Z,13.97
2019-02-08T09:02:04.814Z,16.37
2019-02-08T09:05:02.496Z,16.63
2019-02-08T09:08:01.130Z,15.40
2019-02-08T09:11:06.044Z,19.47
2019-02-08T09:14:18.918Z,11.70
2019-02-08T09:17:24.697Z,12.00
2019-02-08T09:20:24.320Z,12.77
2019-02-08T09:23:07.217Z,16.87
2019-02-08T09:26:05.456Z,15.90
2019-02-08T09:29:08.210Z,15.97
2019-02-08T09:32:09.431Z,15.13
2019-02-08T09:35:28.534Z,13.20
2019-02-08T09:38:37.813Z,15.73
2019-02-08T09:41:18.664Z,15.33
2019-02-08T09:44:33.244Z,13.80
2019-02-08T09:47:41.588Z,12.53
2019-02-08T09:50:47.244Z,10.97
2019-02-08T09:53:44.242Z,13.73
2019-02-08T09:56:42.131Z,15.17
2019-02-08T09:59:52.010Z,13.83
2019-02-08T10:02:46.089Z,15.10
2019-02-08T10:06:01.122Z,17.27
2019-02-08T10:09:07.518Z,12.57
2019-02-08T10:12:22.559Z,15.30
2019-02-08T10:15:28.151Z,17.87
2019-02-08T10:18:33.397Z,20.00
2019-02-08T10:21:53.799Z,17.53
2019-02-08T10:24:58.569Z,16.63
2019-02-08T10:28:07.449Z,16.47
2019-02-08T10:31:20.689Z,17.73
2019-02-08T10:34:25.063Z,16.93
2019-02-08T10:37:52.420Z,18.87
2019-02-08T10:41:10.318Z,18.70
2019-02-08T10:44:20.275Z,20.77
2019-02-08T10:47:27.899Z,17.60
2019-02-08T10:50:34.101Z,14.70
2019-02-08T10:53:32.944Z,17.90
2019-02-08T10:56:44.941Z,18.57
2019-02-08T11:00:01.221Z,16.90
2019-02-08T11:03:00.856Z,19.63
2019-02-08T11:06:06.294Z,22.77
2019-02-08T11:09:06.848Z,17.90
2019-02-08T11:12:18.576Z,19.83
2019-02-08T11:15:35.871Z,19.50
2019-02-08T11:18:55.867Z,18.30
2019-02-08T11:21:26.734Z,18.50
2019-02-08T11:23:55.547Z,20.23
2019-02-08T11:26:24.646Z,22.50
2019-02-08T11:28:53.373Z,20.07
2019-02-08T11:31:22.241Z,19.20
2019-02-08T11:33:51.034Z,19.43
2019-02-08T11:36:20.243Z,22.90
2019-02-08T11:38:49.037Z,21.10
2019-02-08T11:41:17.998Z,22.73
2019-02-08T11:43:46.915Z,19.87
2019-02-08T11:46:15.966Z,23.70
2019-02-08T11:48:44.862Z,20.83
2019-02-08T11:51:14.870Z,23.17
2019-02-08T11:53:44.262Z,20.57
2019-02-08T11:56:13.320Z,21.10
2019-02-08T11:58:42.106Z,22.90
2019-02-08T12:01:17.295Z,20.53
2019-02-08T12:03:46.179Z,17.33
2019-02-08T12:06:15.035Z,21.03
2019-02-08T12:08:44.568Z,18.33
2019-02-08T12:11:13.409Z,19.00
2019-02-08T12:13:42.262Z,18.83
2019-02-08T12:16:11.198Z,17.40
2019-02-08T12:18:40.074Z,20.20
2019-02-08T12:21:09.543Z,16.43
2019-02-08T12:23:38.383Z,18.73
2019-02-08T12:26:07.407Z,20.27
2019-02-08T12:28:36.241Z,20.67
2019-02-08T12:31:05.198Z,14.90
2019-02-08T12:33:34.335Z,14.93
2019-02-08T12:36:03.331Z,12.17
2019-02-08T12:38:32.405Z,15.90
2019-02-08T12:41:01.549Z,14.70
2019-02-08T12:43:30.376Z,15.27
2019-02-08T12:45:59.632Z,13.60
2019-02-08T12:48:28.776Z,12.67
2019-02-08T12:50:57.519Z,16.77
2019-02-08T12:53:26.572Z,13.97
2019-02-08T12:55:55.521Z,11.90
2019-02-08T12:58:24.310Z,13.80
2019-02-08T13:00:53.424Z,13.40
2019-02-08T13:03:22.448Z,12.37
2019-02-08T13:05:51.431Z,15.93
2019-02-08T13:08:20.389Z,15.83
2019-02-08T13:10:49.422Z,13.63
2019-02-08T13:13:18.238Z,14.20
2019-02-08T13:15:47.159Z,13.87
2019-02-08T13:18:15.917Z,12.00
2019-02-08T13:20:45.069Z,14.20
2019-02-08T13:23:14.530Z,11.87
2019-02-08T13:25:43.500Z,13.50
2019-02-08T13:28:13.904Z,14.23
2019-02-08T13:30:42.736Z,12.63
2019-02-08T13:33:11.787Z,16.60
2019-02-08T13:35:40.706Z,18.03
2019-02-08T13:38:12.065Z,14.77
2019-02-08T13:40:40.842Z,10.70
2019-02-08T13:43:09.770Z,10.70
2019-02-08T13:45:40.066Z,14.03
2019-02-08T13:48:09.039Z,11.33
2019-02-08T13:50:38.089Z,12.70
2019-02-08T13:53:07.057Z,10.70
2019-02-08T13:55:35.940Z,9.97
2019-02-08T13:58:06.150Z,10.03
2019-02-08T14:00:38.545Z,10.70
2019-02-08T14:03:07.948Z,9.77
2019-02-08T14:05:38.739Z,9.57
2019-02-08T14:08:07.815Z,10.77
2019-02-08T14:10:36.679Z,9.73
2019-02-08T14:13:05.856Z,7.93
2019-02-08T14:15:35.169Z,8.53
2019-02-08T14:18:04.120Z,8.03
2019-02-08T14:20:33.132Z,9.87
2019-02-08T14:23:02.133Z,11.33
2019-02-08T14:25:30.978Z,8.13
2019-02-08T14:28:00.111Z,5.93
2019-02-08T14:30:31.742Z,6.57
2019-02-08T14:33:00.710Z,6.53
2019-02-08T14:35:29.941Z,8.30
2019-02-08T14:37:59.514Z,8.03
2019-02-08T14:40:28.512Z,6.53
2019-02-08T14:42:57.584Z,7.80
2019-02-08T14:45:26.534Z,5.70
2019-02-08T14:47:55.503Z,7.37
2019-02-08T14:50:25.064Z,5.47
2019-02-08T14:52:54.234Z,6.00
2019-02-08T14:55:23.186Z,6.07
2019-02-08T14:57:53.472Z,5.60
2019-02-08T15:00:22.711Z,4.33
2019-02-08T15:02:51.693Z,7.60
2019-02-08T15:05:21.147Z,6.47
2019-02-08T15:07:51.857Z,6.93
2019-02-08T15:10:26.886Z,5.30
2019-02-08T15:12:56.082Z,5.90
2019-02-08T15:15:25.769Z,6.30
2019-02-08T15:17:54.723Z,7.73
2019-02-08T15:20:26.001Z,6.27
2019-02-08T15:22:55.376Z,5.17
2019-02-08T15:25:24.310Z,4.90
2019-02-08T15:27:56.563Z,4.40
2019-02-08T15:30:28.071Z,3.50
2019-02-08T15:32:57.398Z,5.87
2019-02-08T15:35:26.976Z,4.93
2019-02-08T15:37:56.083Z,4.23
2019-02-08T15:40:32.383Z,6.33
2019-02-08T15:43:01.808Z,4.40
2019-02-08T15:45:32.399Z,4.40
2019-02-08T15:48:01.428Z,4.73
2019-02-08T15:50:30.540Z,4.70
2019-02-08T15:52:59.766Z,6.53
2019-02-08T15:55:30.764Z,4.67
2019-02-08T15:58:00.839Z,4.87
2019-02-08T16:00:30.227Z,3.77
2019-02-08T16:03:07.405Z,3.63
2019-02-08T16:05:36.403Z,3.87
2019-02-08T16:08:06.536Z,4.00
2019-02-08T16:10:36.163Z,4.37
2019-02-08T16:13:05.148Z,5.17
2019-02-08T16:15:34.081Z,4.23
2019-02-08T16:18:03.305Z,4.90
2019-02-08T16:20:32.195Z,4.77
2019-02-08T16:23:01.433Z,7.13
2019-02-08T16:25:32.531Z,3.90
2019-02-08T16:28:01.768Z,6.43
2019-02-08T16:30:31.746Z,4.00
2019-02-08T16:33:00.743Z,4.30
2019-02-08T16:35:29.980Z,8.47
2019-02-08T16:37:59.028Z,5.03
2019-02-08T16:40:28.504Z,7.10
2019-02-08T16:42:57.614Z,5.77
2019-02-08T16:45:31.536Z,8.87
2019-02-08T16:48:01.172Z,4.80
2019-02-08T16:50:31.396Z,7.67
2019-02-08T16:53:00.728Z,4.80
2019-02-08T16:55:29.786Z,4.20
2019-02-08T16:58:00.372Z,3.73
2019-02-08T17:00:36.124Z,4.67
2019-02-08T17:03:07.528Z,6.43
2019-02-08T17:05:36.511Z,6.60
2019-02-08T17:08:05.780Z,6.30
2019-02-08T17:10:35.272Z,5.90
2019-02-08T17:13:04.803Z,7.33
2019-02-08T17:15:34.156Z,8.03
2019-02-08T17:18:03.070Z,6.37
2019-02-08T17:20:34.489Z,3.43
2019-02-08T17:23:03.675Z,7.03
2019-02-08T17:25:32.557Z,3.27
2019-02-08T17:28:03.142Z,5.07
2019-02-08T17:30:32.080Z,4.67
2019-02-08T17:33:19.775Z,5.97
2019-02-08T17:35:48.762Z,5.67
2019-02-08T17:38:19.623Z,3.90
2019-02-08T17:40:50.481Z,5.73
2019-02-08T17:43:19.474Z,3.33
2019-02-08T17:45:48.363Z,5.80
2019-02-08T17:48:17.336Z,5.47
2019-02-08T17:50:46.112Z,5.30
2019-02-08T17:53:15.163Z,4.93
2019-02-08T17:55:44.030Z,5.63
2019-02-08T17:58:13.008Z,3.40
2019-02-08T18:00:51.244Z,5.20
2019-02-08T18:03:21.425Z,4.80
2019-02-08T18:05:50.305Z,5.40
2019-02-08T18:08:19.408Z,4.07
2019-02-08T18:17:44.570Z,6.87
2019-02-08T18:20:19.702Z,4.33
2019-02-08T18:22:48.596Z,3.23
2019-02-08T18:25:18.996Z,3.40
2019-02-08T18:27:47.866Z,5.67
2019-02-08T18:30:18.958Z,9.20
2019-02-08T18:32:48.140Z,4.87
2019-02-08T18:35:17.091Z,6.47
2019-02-08T18:37:46.175Z,5.20
2019-02-08T18:40:16.994Z,2.80
2019-02-08T18:42:46.142Z,8.30
2019-02-08T18:45:20.088Z,5.13
2019-02-08T18:47:49.108Z,5.03
2019-02-08T18:50:24.450Z,4.30
2019-02-08T18:52:53.401Z,6.53
2019-02-08T18:55:22.243Z,3.20
2019-02-08T18:57:51.430Z,4.13
2019-02-08T19:00:23.178Z,4.93
2019-02-08T19:02:52.081Z,3.87
2019-02-08T19:05:22.074Z,6.20
2019-02-08T19:07:51.025Z,3.97
2019-02-08T19:10:20.174Z,5.13
2019-02-08T19:12:49.159Z,5.17
2019-02-08T19:15:19.320Z,3.10
2019-02-08T19:17:48.284Z,3.67
2019-02-08T19:20:19.054Z,3.37
2019-02-08T19:22:48.033Z,4.43
2019-02-08T19:25:19.681Z,4.90
2019-02-08T19:27:48.779Z,5.77
2019-02-08T19:30:20.016Z,5.57
2019-02-08T19:32:49.282Z,5.30
2019-02-08T19:35:21.192Z,4.33
2019-02-08T19:37:50.207Z,3.30
2019-02-08T19:40:22.277Z,3.33
2019-02-08T19:42:51.156Z,5.37
2019-02-08T19:45:20.335Z,4.57
2019-02-08T19:47:51.425Z,5.77
2019-02-08T19:50:40.279Z,6.13
2019-02-08T19:53:09.735Z,3.57
2019-02-08T19:55:39.046Z,6.60
2019-02-08T19:58:16.266Z,3.40
2019-02-08T20:00:45.506Z,5.53
2019-02-08T20:03:14.516Z,4.73
2019-02-08T20:05:45.703Z,3.80
2019-02-08T20:08:14.951Z,4.30
2019-02-08T20:10:45.652Z,6.20
2019-02-08T20:13:14.915Z,3.93
2019-02-08T20:15:44.691Z,3.17
2019-02-08T20:18:14.313Z,4.97
2019-02-08T20:20:43.329Z,6.27
2019-02-08T20:23:12.321Z,4.63
2019-02-08T20:25:41.262Z,4.23
2019-02-08T20:28:10.421Z,5.07
2019-02-08T20:30:39.372Z,4.10
2019-02-08T20:33:08.413Z,4.27
2019-02-08T20:35:37.300Z,4.10
2019-02-08T20:38:07.526Z,4.10
2019-02-08T20:40:38.770Z,5.20
2019-02-08T20:43:07.730Z,4.77
2019-02-08T20:45:37.171Z,2.53
2019-02-08T20:48:09.024Z,4.10
2019-02-08T20:50:38.229Z,4.30
2019-02-08T20:53:07.252Z,5.40
2019-02-08T20:55:36.515Z,6.27
2019-02-08T20:58:09.015Z,5.53
2019-02-08T21:00:38.872Z,3.07
2019-02-08T21:03:12.880Z,2.70
2019-02-08T21:05:43.059Z,4.23
2019-02-08T21:08:12.842Z,5.00
2019-02-08T21:10:42.054Z,4.70
2019-02-08T21:13:11.866Z,5.60
2019-02-08T21:15:41.220Z,4.53
2019-02-08T21:18:10.859Z,5.60
2019-02-08T21:20:41.554Z,4.07
2019-02-08T21:23:11.821Z,2.97
2019-02-08T21:25:41.057Z,4.20
2019-02-08T21:28:09.986Z,3.07
2019-02-08T21:30:38.956Z,3.87
2019-02-08T21:33:09.881Z,4.70
2019-02-08T21:35:38.760Z,6.50
2019-02-08T21:38:08.704Z,3.30
2019-02-08T21:40:38.355Z,4.00
2019-02-08T21:43:07.982Z,3.80
2019-02-08T21:45:37.703Z,3.83
2019-02-08T21:48:08.201Z,4.83
2019-02-08T21:50:37.190Z,4.17
2019-02-08T21:53:06.465Z,4.20
2019-02-08T21:55:35.644Z,7.87
2019-02-08T21:58:05.055Z,3.37
2019-02-08T22:00:35.667Z,4.20
2019-02-08T22:03:05.533Z,4.23
2019-02-08T22:05:40.631Z,7.30
2019-02-08T22:08:09.530Z,3.80
2019-02-08T22:10:38.639Z,3.33
2019-02-08T22:13:07.533Z,6.17
2019-02-08T22:15:36.915Z,4.87
2019-02-08T22:18:07.053Z,3.87
2019-02-08T22:20:35.994Z,3.47
2019-02-08T22:23:05.622Z,4.07
2019-02-08T22:25:34.993Z,3.53
2019-02-08T22:28:16.236Z,5.97
2019-02-08T22:30:45.235Z,3.07
2019-02-08T22:33:22.864Z,4.03
2019-02-08T22:36:11.676Z,2.50
2019-02-08T22:38:40.546Z,2.73
2019-02-08T22:41:09.541Z,4.77
2019-02-08T22:43:39.217Z,4.80
2019-02-08T22:46:08.016Z,4.93
2019-02-08T22:48:36.784Z,4.47
2019-02-08T22:51:05.726Z,3.77
2019-02-08T22:53:34.780Z,3.83
2019-02-08T22:56:04.032Z,4.07
2019-02-08T22:58:33.036Z,3.80
2019-02-08T23:01:32.274Z,2.30
2019-02-08T23:04:02.186Z,6.03
2019-02-08T23:06:31.203Z,3.10
2019-02-08T23:09:00.831Z,4.97
2019-02-08T23:11:30.335Z,3.80
2019-02-08T23:13:59.261Z,4.77
2019-02-08T23:16:28.509Z,4.30
2019-02-08T23:18:57.305Z,3.50
2019-02-08T23:21:27.505Z,4.57
2019-02-08T23:23:56.387Z,3.47
2019-02-08T23:26:25.221Z,4.17
2019-02-08T23:28:54.071Z,4.47
2019-02-08T23:31:22.978Z,5.03
2019-02-08T23:33:52.242Z,3.43
2019-02-08T23:36:21.081Z,3.43
2019-02-08T23:38:50.385Z,5.10
2019-02-08T23:41:19.123Z,4.53
2019-02-08T23:43:47.980Z,4.30
2019-02-08T23:46:16.941Z,5.60
2019-02-08T23:48:45.796Z,5.03
2019-02-08T23:51:14.681Z,3.60
2019-02-08T23:53:43.848Z,3.33
2019-02-08T23:56:12.691Z,3.87
2019-02-08T23:58:41.476Z,4.17
